sensor_id;sensor_type;location;lat;lon;timestamp;P1;durP1;ratioP1;P2;durP2;ratioP2
19758;SDS011;10038;42.662;23.278;2023-02-24T00:01:41;11.83;;;7.60;;
19758;SDS011;10038;42.662;23.278;2023-02-24T00:04:08;21.30;;;8.70;;
19758;SDS011;10038;42.662;23.278;2023-02-24T00:06:36;10.50;;;6.53;;
19758;SDS011;10038;42.662;23.278;2023-02-24T00:09:05;13.17;;;7.00;;
19758;SDS011;10038;42.662;23.278;2023-02-24T00:11:32;17.57;;;8.50;;
19758;SDS011;10038;42.662;23.278;2023-02-24T00:14:00;16.33;;;8.00;;
19758;SDS011;10038;42.662;23.278;2023-02-24T00:16:29;11.93;;;7.43;;
19758;SDS011;10038;42.662;23.278;2023-02-24T00:18:56;15.33;;;7.53;;
19758;SDS011;10038;42.662;23.278;2023-02-24T00:21:23;14.70;;;6.50;;
19758;SDS011;10038;42.662;23.278;2023-02-24T00:23:49;11.17;;;6.00;;
19758;SDS011;10038;42.662;23.278;2023-02-24T00:26:17;17.53;;;7.80;;
19758;SDS011;10038;42.662;23.278;2023-02-24T00:28:44;9.00;;;6.30;;
19758;SDS011;10038;42.662;23.278;2023-02-24T00:31:12;15.40;;;7.70;;
19758;SDS011;10038;42.662;23.278;2023-02-24T00:33:39;17.33;;;8.03;;
19758;SDS011;10038;42.662;23.278;2023-02-24T00:36:06;13.40;;;7.10;;
19758;SDS011;10038;42.662;23.278;2023-02-24T00:38:34;14.63;;;8.53;;
19758;SDS011;10038;42.662;23.278;2023-02-24T00:41:06;12.77;;;6.63;;
19758;SDS011;10038;42.662;23.278;2023-02-24T00:43:33;17.13;;;7.33;;
19758;SDS011;10038;42.662;23.278;2023-02-24T00:46:01;16.57;;;8.20;;
19758;SDS011;10038;42.662;23.278;2023-02-24T00:48:29;22.77;;;7.17;;
19758;SDS011;10038;42.662;23.278;2023-02-24T00:50:56;12.87;;;6.80;;
19758;SDS011;10038;42.662;23.278;2023-02-24T00:53:25;9.00;;;5.73;;
19758;SDS011;10038;42.662;23.278;2023-02-24T00:55:57;12.13;;;6.30;;
19758;SDS011;10038;42.662;23.278;2023-02-24T00:58:24;10.20;;;6.67;;
19758;SDS011;10038;42.662;23.278;2023-02-24T01:00:54;11.10;;;6.50;;
19758;SDS011;10038;42.662;23.278;2023-02-24T01:03:21;12.27;;;7.60;;
19758;SDS011;10038;42.662;23.278;2023-02-24T01:05:51;12.20;;;6.40;;
19758;SDS011;10038;42.662;23.278;2023-02-24T01:08:18;15.70;;;7.00;;
19758;SDS011;10038;42.662;23.278;2023-02-24T01:10:53;15.60;;;7.10;;
19758;SDS011;10038;42.662;23.278;2023-02-24T01:13:40;12.70;;;7.47;;
19758;SDS011;10038;42.662;23.278;2023-02-24T01:16:05;12.97;;;7.10;;
19758;SDS011;10038;42.662;23.278;2023-02-24T01:18:32;20.57;;;6.80;;
19758;SDS011;10038;42.662;23.278;2023-02-24T01:21:00;11.53;;;6.50;;
19758;SDS011;10038;42.662;23.278;2023-02-24T01:23:27;10.27;;;6.03;;
19758;SDS011;10038;42.662;23.278;2023-02-24T01:25:53;7.60;;;5.50;;
19758;SDS011;10038;42.662;23.278;2023-02-24T01:28:22;11.03;;;5.63;;
19758;SDS011;10038;42.662;23.278;2023-02-24T01:30:49;8.40;;;5.73;;
19758;SDS011;10038;42.662;23.278;2023-02-24T01:33:15;12.13;;;4.93;;
19758;SDS011;10038;42.662;23.278;2023-02-24T01:35:42;7.23;;;5.27;;
19758;SDS011;10038;42.662;23.278;2023-02-24T01:38:10;9.60;;;5.50;;
19758;SDS011;10038;42.662;23.278;2023-02-24T01:40:37;10.17;;;4.97;;
19758;SDS011;10038;42.662;23.278;2023-02-24T01:43:04;11.47;;;4.90;;
19758;SDS011;10038;42.662;23.278;2023-02-24T01:45:33;10.77;;;5.17;;
19758;SDS011;10038;42.662;23.278;2023-02-24T01:48:01;10.77;;;4.93;;
19758;SDS011;10038;42.662;23.278;2023-02-24T01:50:29;10.20;;;5.23;;
19758;SDS011;10038;42.662;23.278;2023-02-24T01:52:59;8.67;;;5.23;;
19758;SDS011;10038;42.662;23.278;2023-02-24T01:55:30;10.67;;;5.27;;
19758;SDS011;10038;42.662;23.278;2023-02-24T01:57:58;13.20;;;5.40;;
19758;SDS011;10038;42.662;23.278;2023-02-24T02:00:25;10.53;;;6.93;;
19758;SDS011;10038;42.662;23.278;2023-02-24T02:03:16;10.40;;;5.47;;
19758;SDS011;10038;42.662;23.278;2023-02-24T02:05:43;8.30;;;4.87;;
19758;SDS011;10038;42.662;23.278;2023-02-24T02:08:12;6.70;;;4.97;;
19758;SDS011;10038;42.662;23.278;2023-02-24T02:10:41;8.23;;;4.20;;
19758;SDS011;10038;42.662;23.278;2023-02-24T02:13:09;10.40;;;5.50;;
19758;SDS011;10038;42.662;23.278;2023-02-24T02:15:39;10.70;;;5.90;;
19758;SDS011;10038;42.662;23.278;2023-02-24T02:18:09;10.07;;;5.63;;
19758;SDS011;10038;42.662;23.278;2023-02-24T02:26:24;11.83;;;5.10;;
19758;SDS011;10038;42.662;23.278;2023-02-24T02:29:07;13.37;;;5.30;;
19758;SDS011;10038;42.662;23.278;2023-02-24T02:31:43;10.90;;;5.93;;
19758;SDS011;10038;42.662;23.278;2023-02-24T02:34:18;8.87;;;5.00;;
19758;SDS011;10038;42.662;23.278;2023-02-24T02:36:50;11.37;;;5.83;;
19758;SDS011;10038;42.662;23.278;2023-02-24T02:39:21;8.83;;;4.80;;
19758;SDS011;10038;42.662;23.278;2023-02-24T02:41:51;8.90;;;5.00;;
19758;SDS011;10038;42.662;23.278;2023-02-24T02:44:20;10.80;;;4.50;;
19758;SDS011;10038;42.662;23.278;2023-02-24T02:46:48;11.13;;;4.60;;
19758;SDS011;10038;42.662;23.278;2023-02-24T02:49:19;8.93;;;5.10;;
19758;SDS011;10038;42.662;23.278;2023-02-24T02:51:47;8.03;;;4.80;;
19758;SDS011;10038;42.662;23.278;2023-02-24T02:54:16;16.30;;;6.27;;
19758;SDS011;10038;42.662;23.278;2023-02-24T02:56:45;9.50;;;4.90;;
19758;SDS011;10038;42.662;23.278;2023-02-24T02:59:13;10.47;;;5.17;;
19758;SDS011;10038;42.662;23.278;2023-02-24T03:01:46;8.40;;;4.90;;
19758;SDS011;10038;42.662;23.278;2023-02-24T03:04:14;7.80;;;3.93;;
19758;SDS011;10038;42.662;23.278;2023-02-24T03:06:45;8.87;;;5.13;;
19758;SDS011;10038;42.662;23.278;2023-02-24T03:09:13;13.57;;;6.00;;
19758;SDS011;10038;42.662;23.278;2023-02-24T03:11:43;7.73;;;5.53;;
19758;SDS011;10038;42.662;23.278;2023-02-24T03:14:13;11.27;;;4.17;;
19758;SDS011;10038;42.662;23.278;2023-02-24T03:16:40;8.90;;;5.83;;
19758;SDS011;10038;42.662;23.278;2023-02-24T03:19:10;13.00;;;5.70;;
19758;SDS011;10038;42.662;23.278;2023-02-24T03:21:39;7.93;;;4.03;;
19758;SDS011;10038;42.662;23.278;2023-02-24T03:24:07;12.17;;;5.87;;
19758;SDS011;10038;42.662;23.278;2023-02-24T03:26:36;10.30;;;5.30;;
19758;SDS011;10038;42.662;23.278;2023-02-24T03:29:07;11.17;;;6.23;;
19758;SDS011;10038;42.662;23.278;2023-02-24T03:31:36;9.07;;;4.67;;
19758;SDS011;10038;42.662;23.278;2023-02-24T03:34:04;12.40;;;5.20;;
19758;SDS011;10038;42.662;23.278;2023-02-24T03:36:33;9.53;;;5.10;;
19758;SDS011;10038;42.662;23.278;2023-02-24T03:38:59;8.40;;;4.97;;
19758;SDS011;10038;42.662;23.278;2023-02-24T03:41:33;8.27;;;5.83;;
19758;SDS011;10038;42.662;23.278;2023-02-24T03:44:03;9.27;;;4.30;;
19758;SDS011;10038;42.662;23.278;2023-02-24T03:46:31;7.63;;;3.80;;
19758;SDS011;10038;42.662;23.278;2023-02-24T03:48:58;8.27;;;4.87;;
19758;SDS011;10038;42.662;23.278;2023-02-24T03:51:27;15.53;;;5.00;;
19758;SDS011;10038;42.662;23.278;2023-02-24T03:53:59;7.30;;;4.30;;
19758;SDS011;10038;42.662;23.278;2023-02-24T03:56:30;11.60;;;4.60;;
19758;SDS011;10038;42.662;23.278;2023-02-24T03:59:05;12.00;;;4.83;;
19758;SDS011;10038;42.662;23.278;2023-02-24T04:01:39;8.13;;;4.83;;
19758;SDS011;10038;42.662;23.278;2023-02-24T04:04:09;9.07;;;4.90;;
19758;SDS011;10038;42.662;23.278;2023-02-24T04:06:40;9.20;;;4.13;;
19758;SDS011;10038;42.662;23.278;2023-02-24T04:09:10;12.80;;;4.90;;
19758;SDS011;10038;42.662;23.278;2023-02-24T04:11:41;7.43;;;4.60;;
19758;SDS011;10038;42.662;23.278;2023-02-24T04:14:11;6.47;;;4.37;;
19758;SDS011;10038;42.662;23.278;2023-02-24T04:16:40;5.77;;;3.77;;
19758;SDS011;10038;42.662;23.278;2023-02-24T04:19:10;8.40;;;4.70;;
19758;SDS011;10038;42.662;23.278;2023-02-24T04:21:39;8.40;;;5.10;;
19758;SDS011;10038;42.662;23.278;2023-02-24T04:24:07;6.57;;;4.37;;
19758;SDS011;10038;42.662;23.278;2023-02-24T04:26:39;9.87;;;5.47;;
19758;SDS011;10038;42.662;23.278;2023-02-24T04:29:06;7.73;;;3.23;;
19758;SDS011;10038;42.662;23.278;2023-02-24T04:31:34;9.33;;;4.90;;
19758;SDS011;10038;42.662;23.278;2023-02-24T04:34:02;4.67;;;3.53;;
19758;SDS011;10038;42.662;23.278;2023-02-24T04:36:33;9.87;;;3.90;;
19758;SDS011;10038;42.662;23.278;2023-02-24T04:38:59;7.73;;;3.80;;
19758;SDS011;10038;42.662;23.278;2023-02-24T04:41:26;7.13;;;3.87;;
19758;SDS011;10038;42.662;23.278;2023-02-24T04:43:52;7.53;;;3.47;;
19758;SDS011;10038;42.662;23.278;2023-02-24T04:46:19;5.40;;;3.10;;
19758;SDS011;10038;42.662;23.278;2023-02-24T04:48:48;6.10;;;3.57;;
19758;SDS011;10038;42.662;23.278;2023-02-24T04:51:15;7.67;;;3.67;;
19758;SDS011;10038;42.662;23.278;2023-02-24T04:53:44;3.97;;;2.50;;
19758;SDS011;10038;42.662;23.278;2023-02-24T04:56:11;8.20;;;4.40;;
19758;SDS011;10038;42.662;23.278;2023-02-24T04:58:38;3.70;;;2.73;;
19758;SDS011;10038;42.662;23.278;2023-02-24T05:01:05;7.10;;;4.53;;
19758;SDS011;10038;42.662;23.278;2023-02-24T05:03:32;6.57;;;3.17;;
19758;SDS011;10038;42.662;23.278;2023-02-24T05:06:01;6.10;;;2.80;;
19758;SDS011;10038;42.662;23.278;2023-02-24T05:08:30;4.57;;;3.43;;
19758;SDS011;10038;42.662;23.278;2023-02-24T05:10:57;5.20;;;3.03;;
19758;SDS011;10038;42.662;23.278;2023-02-24T05:13:25;6.60;;;3.60;;
19758;SDS011;10038;42.662;23.278;2023-02-24T05:15:52;4.07;;;2.93;;
19758;SDS011;10038;42.662;23.278;2023-02-24T05:18:19;4.90;;;3.13;;
19758;SDS011;10038;42.662;23.278;2023-02-24T05:20:48;4.47;;;3.00;;
19758;SDS011;10038;42.662;23.278;2023-02-24T05:23:34;5.97;;;3.53;;
19758;SDS011;10038;42.662;23.278;2023-02-24T05:26:03;4.80;;;3.40;;
19758;SDS011;10038;42.662;23.278;2023-02-24T05:28:33;7.23;;;3.33;;
19758;SDS011;10038;42.662;23.278;2023-02-24T05:31:02;5.60;;;3.80;;
19758;SDS011;10038;42.662;23.278;2023-02-24T05:33:30;3.93;;;2.70;;
19758;SDS011;10038;42.662;23.278;2023-02-24T05:36:00;5.73;;;3.20;;
19758;SDS011;10038;42.662;23.278;2023-02-24T05:38:27;5.40;;;3.20;;
19758;SDS011;10038;42.662;23.278;2023-02-24T05:41:02;6.47;;;4.03;;
19758;SDS011;10038;42.662;23.278;2023-02-24T05:43:30;11.60;;;3.80;;
19758;SDS011;10038;42.662;23.278;2023-02-24T05:45:59;7.27;;;3.90;;
19758;SDS011;10038;42.662;23.278;2023-02-24T05:48:27;10.17;;;3.97;;
19758;SDS011;10038;42.662;23.278;2023-02-24T05:50:54;8.87;;;4.50;;
19758;SDS011;10038;42.662;23.278;2023-02-24T05:53:21;9.93;;;4.37;;
19758;SDS011;10038;42.662;23.278;2023-02-24T05:55:48;6.80;;;4.40;;
19758;SDS011;10038;42.662;23.278;2023-02-24T05:58:16;12.20;;;6.43;;
19758;SDS011;10038;42.662;23.278;2023-02-24T06:00:42;6.70;;;4.33;;
19758;SDS011;10038;42.662;23.278;2023-02-24T06:03:10;6.97;;;4.80;;
19758;SDS011;10038;42.662;23.278;2023-02-24T06:05:41;10.93;;;4.93;;
19758;SDS011;10038;42.662;23.278;2023-02-24T06:08:08;8.40;;;4.60;;
19758;SDS011;10038;42.662;23.278;2023-02-24T06:10:36;7.50;;;4.27;;
19758;SDS011;10038;42.662;23.278;2023-02-24T06:13:05;9.73;;;4.77;;
19758;SDS011;10038;42.662;23.278;2023-02-24T06:15:33;9.20;;;5.37;;
19758;SDS011;10038;42.662;23.278;2023-02-24T06:18:01;10.13;;;5.50;;
19758;SDS011;10038;42.662;23.278;2023-02-24T06:20:28;9.17;;;4.80;;
19758;SDS011;10038;42.662;23.278;2023-02-24T06:22:57;9.17;;;5.00;;
19758;SDS011;10038;42.662;23.278;2023-02-24T06:25:24;13.00;;;5.43;;
19758;SDS011;10038;42.662;23.278;2023-02-24T06:27:53;7.67;;;4.87;;
19758;SDS011;10038;42.662;23.278;2023-02-24T06:30:20;10.40;;;5.37;;
19758;SDS011;10038;42.662;23.278;2023-02-24T06:32:49;9.30;;;4.93;;
19758;SDS011;10038;42.662;23.278;2023-02-24T06:35:15;10.77;;;4.83;;
19758;SDS011;10038;42.662;23.278;2023-02-24T06:37:42;12.87;;;6.70;;
19758;SDS011;10038;42.662;23.278;2023-02-24T06:40:09;7.40;;;4.30;;
19758;SDS011;10038;42.662;23.278;2023-02-24T06:42:40;6.73;;;5.00;;
19758;SDS011;10038;42.662;23.278;2023-02-24T06:45:09;6.70;;;4.87;;
19758;SDS011;10038;42.662;23.278;2023-02-24T06:47:36;17.03;;;4.33;;
19758;SDS011;10038;42.662;23.278;2023-02-24T06:50:04;8.77;;;5.50;;
19758;SDS011;10038;42.662;23.278;2023-02-24T06:52:31;11.83;;;5.90;;
19758;SDS011;10038;42.662;23.278;2023-02-24T06:54:58;13.40;;;7.80;;
19758;SDS011;10038;42.662;23.278;2023-02-24T06:57:24;11.97;;;7.00;;
19758;SDS011;10038;42.662;23.278;2023-02-24T06:59:53;13.57;;;7.80;;
19758;SDS011;10038;42.662;23.278;2023-02-24T07:02:20;15.87;;;8.40;;
19758;SDS011;10038;42.662;23.278;2023-02-24T07:04:49;16.20;;;7.77;;
19758;SDS011;10038;42.662;23.278;2023-02-24T07:07:20;13.77;;;8.07;;
19758;SDS011;10038;42.662;23.278;2023-02-24T07:09:47;14.73;;;8.00;;
19758;SDS011;10038;42.662;23.278;2023-02-24T07:12:13;10.73;;;6.97;;
19758;SDS011;10038;42.662;23.278;2023-02-24T07:14:44;14.30;;;6.67;;
19758;SDS011;10038;42.662;23.278;2023-02-24T07:17:15;14.60;;;6.80;;
19758;SDS011;10038;42.662;23.278;2023-02-24T07:19:43;14.70;;;7.50;;
19758;SDS011;10038;42.662;23.278;2023-02-24T07:22:10;12.57;;;6.93;;
19758;SDS011;10038;42.662;23.278;2023-02-24T07:24:40;11.00;;;6.60;;
19758;SDS011;10038;42.662;23.278;2023-02-24T07:27:11;8.57;;;6.00;;
19758;SDS011;10038;42.662;23.278;2023-02-24T07:29:46;9.27;;;6.40;;
19758;SDS011;10038;42.662;23.278;2023-02-24T07:32:13;15.53;;;8.00;;
19758;SDS011;10038;42.662;23.278;2023-02-24T07:34:41;12.70;;;7.53;;
19758;SDS011;10038;42.662;23.278;2023-02-24T07:37:08;14.57;;;7.53;;
19758;SDS011;10038;42.662;23.278;2023-02-24T07:39:35;14.17;;;7.90;;
19758;SDS011;10038;42.662;23.278;2023-02-24T07:42:04;13.77;;;8.10;;
19758;SDS011;10038;42.662;23.278;2023-02-24T07:44:31;11.13;;;7.00;;
19758;SDS011;10038;42.662;23.278;2023-02-24T07:46:58;16.07;;;7.50;;
19758;SDS011;10038;42.662;23.278;2023-02-24T07:49:24;15.17;;;7.67;;
19758;SDS011;10038;42.662;23.278;2023-02-24T07:51:54;13.53;;;8.47;;
19758;SDS011;10038;42.662;23.278;2023-02-24T07:54:22;18.57;;;8.20;;
19758;SDS011;10038;42.662;23.278;2023-02-24T07:56:49;18.20;;;9.63;;
19758;SDS011;10038;42.662;23.278;2023-02-24T07:59:23;15.70;;;7.83;;
19758;SDS011;10038;42.662;23.278;2023-02-24T08:01:50;14.33;;;8.67;;
19758;SDS011;10038;42.662;23.278;2023-02-24T08:04:20;15.33;;;8.50;;
19758;SDS011;10038;42.662;23.278;2023-02-24T08:06:49;12.97;;;7.63;;
19758;SDS011;10038;42.662;23.278;2023-02-24T08:09:20;17.40;;;8.20;;
19758;SDS011;10038;42.662;23.278;2023-02-24T08:12:07;15.37;;;7.70;;
19758;SDS011;10038;42.662;23.278;2023-02-24T08:14:34;11.33;;;6.70;;
19758;SDS011;10038;42.662;23.278;2023-02-24T08:17:09;13.70;;;6.70;;
19758;SDS011;10038;42.662;23.278;2023-02-24T08:19:35;12.43;;;6.87;;
19758;SDS011;10038;42.662;23.278;2023-02-24T08:22:05;14.17;;;7.70;;
19758;SDS011;10038;42.662;23.278;2023-02-24T08:24:43;12.87;;;6.77;;
19758;SDS011;10038;42.662;23.278;2023-02-24T08:27:14;7.87;;;6.13;;
19758;SDS011;10038;42.662;23.278;2023-02-24T08:29:46;13.60;;;7.20;;
19758;SDS011;10038;42.662;23.278;2023-02-24T08:32:23;9.40;;;6.37;;
19758;SDS011;10038;42.662;23.278;2023-02-24T08:34:49;10.17;;;6.40;;
19758;SDS011;10038;42.662;23.278;2023-02-24T08:37:20;15.70;;;7.73;;
19758;SDS011;10038;42.662;23.278;2023-02-24T08:39:47;15.80;;;7.67;;
19758;SDS011;10038;42.662;23.278;2023-02-24T08:42:18;14.53;;;7.40;;
19758;SDS011;10038;42.662;23.278;2023-02-24T08:44:49;12.97;;;7.77;;
19758;SDS011;10038;42.662;23.278;2023-02-24T08:47:17;12.13;;;7.77;;
19758;SDS011;10038;42.662;23.278;2023-02-24T08:49:50;14.33;;;7.60;;
19758;SDS011;10038;42.662;23.278;2023-02-24T08:52:17;13.17;;;6.80;;
19758;SDS011;10038;42.662;23.278;2023-02-24T08:54:44;13.30;;;8.20;;
19758;SDS011;10038;42.662;23.278;2023-02-24T08:57:13;16.97;;;7.23;;
19758;SDS011;10038;42.662;23.278;2023-02-24T08:59:42;12.03;;;7.17;;
19758;SDS011;10038;42.662;23.278;2023-02-24T09:02:16;15.47;;;7.70;;
19758;SDS011;10038;42.662;23.278;2023-02-24T09:04:52;14.80;;;7.40;;
19758;SDS011;10038;42.662;23.278;2023-02-24T09:07:19;12.47;;;7.37;;
19758;SDS011;10038;42.662;23.278;2023-02-24T09:09:47;11.30;;;6.83;;
19758;SDS011;10038;42.662;23.278;2023-02-24T09:12:14;15.27;;;7.87;;
19758;SDS011;10038;42.662;23.278;2023-02-24T09:14:49;12.20;;;6.13;;
19758;SDS011;10038;42.662;23.278;2023-02-24T09:17:21;15.20;;;7.10;;
19758;SDS011;10038;42.662;23.278;2023-02-24T09:20:04;9.80;;;6.43;;
19758;SDS011;10038;42.662;23.278;2023-02-24T09:22:49;12.80;;;7.03;;
19758;SDS011;10038;42.662;23.278;2023-02-24T09:25:27;14.83;;;7.80;;
19758;SDS011;10038;42.662;23.278;2023-02-24T09:28:06;11.77;;;6.53;;
19758;SDS011;10038;42.662;23.278;2023-02-24T09:30:33;11.90;;;8.10;;
19758;SDS011;10038;42.662;23.278;2023-02-24T09:33:16;12.70;;;7.10;;
19758;SDS011;10038;42.662;23.278;2023-02-24T09:35:45;10.23;;;6.50;;
19758;SDS011;10038;42.662;23.278;2023-02-24T09:38:12;12.30;;;6.57;;
19758;SDS011;10038;42.662;23.278;2023-02-24T09:40:40;9.80;;;6.70;;
19758;SDS011;10038;42.662;23.278;2023-02-24T09:43:13;11.80;;;8.10;;
19758;SDS011;10038;42.662;23.278;2023-02-24T09:45:43;14.00;;;7.87;;
19758;SDS011;10038;42.662;23.278;2023-02-24T09:48:20;12.30;;;7.57;;
19758;SDS011;10038;42.662;23.278;2023-02-24T09:50:47;12.73;;;7.20;;
19758;SDS011;10038;42.662;23.278;2023-02-24T09:53:28;17.07;;;7.57;;
19758;SDS011;10038;42.662;23.278;2023-02-24T09:56:04;15.33;;;8.00;;
19758;SDS011;10038;42.662;23.278;2023-02-24T09:58:35;17.57;;;7.93;;
19758;SDS011;10038;42.662;23.278;2023-02-24T10:01:05;15.10;;;6.90;;
19758;SDS011;10038;42.662;23.278;2023-02-24T10:03:47;13.87;;;6.80;;
19758;SDS011;10038;42.662;23.278;2023-02-24T10:06:18;14.50;;;7.30;;
19758;SDS011;10038;42.662;23.278;2023-02-24T10:08:48;10.00;;;6.50;;
19758;SDS011;10038;42.662;23.278;2023-02-24T10:11:16;10.10;;;6.37;;
19758;SDS011;10038;42.662;23.278;2023-02-24T10:13:57;12.50;;;6.40;;
19758;SDS011;10038;42.662;23.278;2023-02-24T10:16:24;12.80;;;6.87;;
19758;SDS011;10038;42.662;23.278;2023-02-24T10:19:04;14.20;;;6.87;;
19758;SDS011;10038;42.662;23.278;2023-02-24T10:21:41;13.83;;;7.00;;
19758;SDS011;10038;42.662;23.278;2023-02-24T10:24:26;11.47;;;6.60;;
19758;SDS011;10038;42.662;23.278;2023-02-24T10:26:55;16.93;;;7.50;;
19758;SDS011;10038;42.662;23.278;2023-02-24T10:29:25;11.40;;;7.13;;
19758;SDS011;10038;42.662;23.278;2023-02-24T10:31:59;18.60;;;7.07;;
19758;SDS011;10038;42.662;23.278;2023-02-24T10:34:32;11.53;;;7.20;;
19758;SDS011;10038;42.662;23.278;2023-02-24T10:36:59;14.17;;;8.43;;
19758;SDS011;10038;42.662;23.278;2023-02-24T10:39:30;13.70;;;7.23;;
19758;SDS011;10038;42.662;23.278;2023-02-24T10:41:58;16.03;;;7.60;;
19758;SDS011;10038;42.662;23.278;2023-02-24T10:44:39;15.17;;;8.43;;
19758;SDS011;10038;42.662;23.278;2023-02-24T10:47:16;14.40;;;7.50;;
19758;SDS011;10038;42.662;23.278;2023-02-24T10:49:46;11.30;;;6.77;;
19758;SDS011;10038;42.662;23.278;2023-02-24T10:52:22;14.60;;;7.57;;
19758;SDS011;10038;42.662;23.278;2023-02-24T10:55:12;12.03;;;7.57;;
19758;SDS011;10038;42.662;23.278;2023-02-24T10:57:52;12.00;;;7.33;;
19758;SDS011;10038;42.662;23.278;2023-02-24T11:00:36;13.23;;;7.57;;
19758;SDS011;10038;42.662;23.278;2023-02-24T11:03:25;13.90;;;7.23;;
19758;SDS011;10038;42.662;23.278;2023-02-24T11:06:02;12.33;;;7.23;;
19758;SDS011;10038;42.662;23.278;2023-02-24T11:08:55;13.87;;;7.40;;
19758;SDS011;10038;42.662;23.278;2023-02-24T11:11:42;13.73;;;8.07;;
19758;SDS011;10038;42.662;23.278;2023-02-24T11:14:22;15.03;;;9.67;;
19758;SDS011;10038;42.662;23.278;2023-02-24T11:17:11;10.13;;;7.50;;
19758;SDS011;10038;42.662;23.278;2023-02-24T11:19:43;14.57;;;8.40;;
19758;SDS011;10038;42.662;23.278;2023-02-24T11:22:13;14.00;;;8.33;;
19758;SDS011;10038;42.662;23.278;2023-02-24T11:24:42;11.30;;;7.70;;
19758;SDS011;10038;42.662;23.278;2023-02-24T11:27:09;12.50;;;8.10;;
19758;SDS011;10038;42.662;23.278;2023-02-24T11:29:41;15.40;;;8.93;;
19758;SDS011;10038;42.662;23.278;2023-02-24T11:32:16;12.00;;;8.30;;
19758;SDS011;10038;42.662;23.278;2023-02-24T11:34:48;10.90;;;7.37;;
19758;SDS011;10038;42.662;23.278;2023-02-24T11:37:20;13.80;;;7.77;;
19758;SDS011;10038;42.662;23.278;2023-02-24T11:39:51;14.07;;;9.50;;
19758;SDS011;10038;42.662;23.278;2023-02-24T11:42:21;12.83;;;7.80;;
19758;SDS011;10038;42.662;23.278;2023-02-24T11:44:51;13.87;;;8.07;;
19758;SDS011;10038;42.662;23.278;2023-02-24T11:47:20;11.87;;;7.37;;
19758;SDS011;10038;42.662;23.278;2023-02-24T11:49:48;13.70;;;9.53;;
19758;SDS011;10038;42.662;23.278;2023-02-24T11:52:17;13.10;;;8.07;;
19758;SDS011;10038;42.662;23.278;2023-02-24T11:54:47;11.73;;;7.80;;
19758;SDS011;10038;42.662;23.278;2023-02-24T11:57:15;11.53;;;8.60;;
19758;SDS011;10038;42.662;23.278;2023-02-24T11:59:43;15.53;;;8.20;;
19758;SDS011;10038;42.662;23.278;2023-02-24T12:02:13;13.77;;;8.50;;
19758;SDS011;10038;42.662;23.278;2023-02-24T12:04:42;15.17;;;8.87;;
19758;SDS011;10038;42.662;23.278;2023-02-24T12:07:13;13.83;;;7.70;;
19758;SDS011;10038;42.662;23.278;2023-02-24T12:09:45;12.87;;;8.67;;
19758;SDS011;10038;42.662;23.278;2023-02-24T12:12:16;16.40;;;9.23;;
19758;SDS011;10038;42.662;23.278;2023-02-24T12:14:45;13.47;;;8.97;;
19758;SDS011;10038;42.662;23.278;2023-02-24T12:17:15;15.07;;;8.10;;
19758;SDS011;10038;42.662;23.278;2023-02-24T12:19:47;17.67;;;9.80;;
19758;SDS011;10038;42.662;23.278;2023-02-24T12:22:16;16.67;;;7.50;;
19758;SDS011;10038;42.662;23.278;2023-02-24T12:24:44;13.90;;;9.13;;
19758;SDS011;10038;42.662;23.278;2023-02-24T12:27:17;14.70;;;8.03;;
19758;SDS011;10038;42.662;23.278;2023-02-24T12:29:58;15.43;;;9.00;;
19758;SDS011;10038;42.662;23.278;2023-02-24T12:32:35;16.97;;;9.43;;
19758;SDS011;10038;42.662;23.278;2023-02-24T12:35:07;16.57;;;8.47;;
19758;SDS011;10038;42.662;23.278;2023-02-24T12:37:41;22.97;;;10.30;;
19758;SDS011;10038;42.662;23.278;2023-02-24T12:40:16;19.00;;;10.97;;
19758;SDS011;10038;42.662;23.278;2023-02-24T12:42:50;22.33;;;11.20;;
19758;SDS011;10038;42.662;23.278;2023-02-24T12:45:21;22.57;;;12.47;;
19758;SDS011;10038;42.662;23.278;2023-02-24T12:47:53;21.60;;;12.60;;
19758;SDS011;10038;42.662;23.278;2023-02-24T12:50:23;20.57;;;13.40;;
19758;SDS011;10038;42.662;23.278;2023-02-24T12:52:57;23.47;;;12.67;;
19758;SDS011;10038;42.662;23.278;2023-02-24T12:55:25;23.63;;;12.97;;
19758;SDS011;10038;42.662;23.278;2023-02-24T12:57:57;26.30;;;13.00;;
19758;SDS011;10038;42.662;23.278;2023-02-24T13:00:28;24.23;;;11.67;;
19758;SDS011;10038;42.662;23.278;2023-02-24T13:02:56;22.10;;;11.93;;
19758;SDS011;10038;42.662;23.278;2023-02-24T13:05:27;26.83;;;12.80;;
19758;SDS011;10038;42.662;23.278;2023-02-24T13:08:02;22.00;;;13.17;;
19758;SDS011;10038;42.662;23.278;2023-02-24T13:10:34;22.20;;;12.47;;
19758;SDS011;10038;42.662;23.278;2023-02-24T13:13:06;21.73;;;13.10;;
19758;SDS011;10038;42.662;23.278;2023-02-24T13:15:35;22.03;;;13.80;;
19758;SDS011;10038;42.662;23.278;2023-02-24T13:18:02;24.27;;;11.83;;
19758;SDS011;10038;42.662;23.278;2023-02-24T13:20:29;18.60;;;14.07;;
19758;SDS011;10038;42.662;23.278;2023-02-24T13:22:56;27.83;;;14.80;;
19758;SDS011;10038;42.662;23.278;2023-02-24T13:25:25;24.13;;;12.67;;
19758;SDS011;10038;42.662;23.278;2023-02-24T13:27:54;21.37;;;12.67;;
19758;SDS011;10038;42.662;23.278;2023-02-24T13:30:33;21.43;;;12.87;;
19758;SDS011;10038;42.662;23.278;2023-02-24T13:33:02;20.10;;;12.53;;
19758;SDS011;10038;42.662;23.278;2023-02-24T13:35:30;20.00;;;12.60;;
19758;SDS011;10038;42.662;23.278;2023-02-24T13:38:06;24.77;;;13.20;;
19758;SDS011;10038;42.662;23.278;2023-02-24T13:40:32;24.17;;;12.90;;
19758;SDS011;10038;42.662;23.278;2023-02-24T13:43:00;22.43;;;12.57;;
19758;SDS011;10038;42.662;23.278;2023-02-24T13:45:30;21.97;;;13.50;;
19758;SDS011;10038;42.662;23.278;2023-02-24T13:50:50;28.90;;;15.37;;
19758;SDS011;10038;42.662;23.278;2023-02-24T13:53:22;25.50;;;14.90;;
19758;SDS011;10038;42.662;23.278;2023-02-24T13:55:57;24.23;;;13.20;;
19758;SDS011;10038;42.662;23.278;2023-02-24T13:58:36;32.43;;;16.27;;
19758;SDS011;10038;42.662;23.278;2023-02-24T14:01:07;33.07;;;16.10;;
19758;SDS011;10038;42.662;23.278;2023-02-24T14:03:35;27.00;;;15.47;;
19758;SDS011;10038;42.662;23.278;2023-02-24T14:06:03;24.97;;;14.67;;
19758;SDS011;10038;42.662;23.278;2023-02-24T14:08:34;28.90;;;16.13;;
19758;SDS011;10038;42.662;23.278;2023-02-24T14:11:03;24.63;;;13.93;;
19758;SDS011;10038;42.662;23.278;2023-02-24T14:13:33;29.37;;;15.23;;
19758;SDS011;10038;42.662;23.278;2023-02-24T14:16:03;26.23;;;15.80;;
19758;SDS011;10038;42.662;23.278;2023-02-24T14:18:33;37.27;;;18.07;;
19758;SDS011;10038;42.662;23.278;2023-02-24T14:21:00;38.37;;;19.57;;
19758;SDS011;10038;42.662;23.278;2023-02-24T14:23:28;35.60;;;19.43;;
19758;SDS011;10038;42.662;23.278;2023-02-24T14:25:56;36.23;;;16.80;;
19758;SDS011;10038;42.662;23.278;2023-02-24T14:28:24;36.83;;;20.80;;
19758;SDS011;10038;42.662;23.278;2023-02-24T14:30:52;28.13;;;17.00;;
19758;SDS011;10038;42.662;23.278;2023-02-24T14:33:21;33.60;;;17.77;;
19758;SDS011;10038;42.662;23.278;2023-02-24T14:35:52;33.83;;;19.73;;
19758;SDS011;10038;42.662;23.278;2023-02-24T14:38:28;38.43;;;19.27;;
19758;SDS011;10038;42.662;23.278;2023-02-24T14:40:55;38.93;;;19.33;;
19758;SDS011;10038;42.662;23.278;2023-02-24T14:43:21;32.37;;;18.33;;
19758;SDS011;10038;42.662;23.278;2023-02-24T14:45:48;40.00;;;19.63;;
19758;SDS011;10038;42.662;23.278;2023-02-24T14:48:19;38.23;;;20.53;;
19758;SDS011;10038;42.662;23.278;2023-02-24T14:50:46;41.80;;;21.23;;